sensor_id;sensor_type;location;lat;lon;timestamp;pressure;altitude;pressure_sealevel;temperature
62932;BMP280;49037;41.898;25.004;2023-07-20T00:01:43;96005.72;;;24.54
62932;BMP280;49037;41.898;25.004;2023-07-20T00:05:34;96001.59;;;24.55
62932;BMP280;49037;41.898;25.004;2023-07-20T00:08:01;96032.81;;;24.71
62932;BMP280;49037;41.898;25.004;2023-07-20T00:10:27;96034.34;;;24.53
62932;BMP280;49037;41.898;25.004;2023-07-20T00:13:15;96053.91;;;24.45
62932;BMP280;49037;41.898;25.004;2023-07-20T00:15:49;96069.31;;;24.14
62932;BMP280;49037;41.898;25.004;2023-07-20T00:20:18;96101.41;;;24.15
62932;BMP280;49037;41.898;25.004;2023-07-20T00:23:06;96095.81;;;24.11
62932;BMP280;49037;41.898;25.004;2023-07-20T00:25:37;96101.59;;;24.21
62932;BMP280;49037;41.898;25.004;2023-07-20T00:30:21;96096.19;;;24.02
62932;BMP280;49037;41.898;25.004;2023-07-20T00:35:35;96092.84;;;24.03
62932;BMP280;49037;41.898;25.004;2023-07-20T00:38:04;96096.91;;;24.04
62932;BMP280;49037;41.898;25.004;2023-07-20T00:42:48;96100.25;;;23.82
62932;BMP280;49037;41.898;25.004;2023-07-20T00:48:36;96101.66;;;23.63
62932;BMP280;49037;41.898;25.004;2023-07-20T00:51:32;96102.06;;;23.56
62932;BMP280;49037;41.898;25.004;2023-07-20T00:54:22;96088.16;;;23.67
62932;BMP280;49037;41.898;25.004;2023-07-20T01:11:59;96090.69;;;23.81
62932;BMP280;49037;41.898;25.004;2023-07-20T01:14:31;96080.19;;;23.92
62932;BMP280;49037;41.898;25.004;2023-07-20T01:16:57;96078.91;;;23.95
62932;BMP280;49037;41.898;25.004;2023-07-20T01:29:06;96110.25;;;23.56
62932;BMP280;49037;41.898;25.004;2023-07-20T01:32:07;96105.94;;;23.49
62932;BMP280;49037;41.898;25.004;2023-07-20T01:34:42;96090.47;;;23.36
62932;BMP280;49037;41.898;25.004;2023-07-20T01:37:09;96091.72;;;23.53
62932;BMP280;49037;41.898;25.004;2023-07-20T01:39:36;96096.00;;;23.57
62932;BMP280;49037;41.898;25.004;2023-07-20T01:44:20;96080.28;;;23.37
62932;BMP280;49037;41.898;25.004;2023-07-20T01:46:48;96082.59;;;23.44
62932;BMP280;49037;41.898;25.004;2023-07-20T02:04:08;96069.72;;;23.47
62932;BMP280;49037;41.898;25.004;2023-07-20T02:06:36;96047.84;;;23.25
62932;BMP280;49037;41.898;25.004;2023-07-20T02:09:01;96054.69;;;23.26
62932;BMP280;49037;41.898;25.004;2023-07-20T02:13:37;96056.56;;;23.41
62932;BMP280;49037;41.898;25.004;2023-07-20T02:16:49;96061.34;;;23.41
62932;BMP280;49037;41.898;25.004;2023-07-20T02:19:30;96063.50;;;23.44
62932;BMP280;49037;41.898;25.004;2023-07-20T02:22:05;96042.94;;;23.41
62932;BMP280;49037;41.898;25.004;2023-07-20T02:26:19;96055.38;;;23.46
62932;BMP280;49037;41.898;25.004;2023-07-20T02:28:47;96045.47;;;23.35
62932;BMP280;49037;41.898;25.004;2023-07-20T02:31:22;96066.97;;;23.27
62932;BMP280;49037;41.898;25.004;2023-07-20T02:33:47;96048.78;;;23.15
62932;BMP280;49037;41.898;25.004;2023-07-20T02:36:13;96056.13;;;23.10
62932;BMP280;49037;41.898;25.004;2023-07-20T02:38:43;96050.81;;;22.95
62932;BMP280;49037;41.898;25.004;2023-07-20T02:41:39;96055.00;;;22.98
62932;BMP280;49037;41.898;25.004;2023-07-20T02:44:07;96036.09;;;22.84
62932;BMP280;49037;41.898;25.004;2023-07-20T02:46:41;96055.09;;;22.83
62932;BMP280;49037;41.898;25.004;2023-07-20T02:49:45;96062.19;;;22.72
62932;BMP280;49037;41.898;25.004;2023-07-20T03:04:50;96033.25;;;23.00
62932;BMP280;49037;41.898;25.004;2023-07-20T03:07:39;96044.75;;;22.79
62932;BMP280;49037;41.898;25.004;2023-07-20T03:27:04;96022.16;;;22.94
62932;BMP280;49037;41.898;25.004;2023-07-20T03:34:22;96017.66;;;22.83
62932;BMP280;49037;41.898;25.004;2023-07-20T03:37:26;96009.19;;;22.75
62932;BMP280;49037;41.898;25.004;2023-07-20T03:39:53;96025.84;;;22.83
62932;BMP280;49037;41.898;25.004;2023-07-20T03:42:19;96014.72;;;22.77
62932;BMP280;49037;41.898;25.004;2023-07-20T03:44:48;96004.41;;;22.74
62932;BMP280;49037;41.898;25.004;2023-07-20T03:47:13;96023.81;;;22.83
62932;BMP280;49037;41.898;25.004;2023-07-20T03:49:39;96012.97;;;22.85
62932;BMP280;49037;41.898;25.004;2023-07-20T03:52:04;96011.66;;;22.86
62932;BMP280;49037;41.898;25.004;2023-07-20T03:54:33;96023.63;;;22.97
62932;BMP280;49037;41.898;25.004;2023-07-20T03:57:05;96024.88;;;22.94
62932;BMP280;49037;41.898;25.004;2023-07-20T03:59:50;96017.25;;;22.90
62932;BMP280;49037;41.898;25.004;2023-07-20T04:02:18;96042.22;;;23.02
62932;BMP280;49037;41.898;25.004;2023-07-20T04:04:46;96026.19;;;22.93
62932;BMP280;49037;41.898;25.004;2023-07-20T04:08:52;96037.53;;;23.05
62932;BMP280;49037;41.898;25.004;2023-07-20T04:11:20;96017.22;;;23.08
62932;BMP280;49037;41.898;25.004;2023-07-20T04:13:48;96019.84;;;23.25
62932;BMP280;49037;41.898;25.004;2023-07-20T04:16:16;96034.16;;;23.43
62932;BMP280;49037;41.898;25.004;2023-07-20T04:18:41;96021.06;;;23.39
62932;BMP280;49037;41.898;25.004;2023-07-20T04:21:08;96030.94;;;23.48
62932;BMP280;49037;41.898;25.004;2023-07-20T04:26:03;96041.16;;;23.88
62932;BMP280;49037;41.898;25.004;2023-07-20T04:28:57;96042.03;;;24.16
62932;BMP280;49037;41.898;25.004;2023-07-20T04:31:24;96025.66;;;24.16
62932;BMP280;49037;41.898;25.004;2023-07-20T04:45:31;96026.22;;;25.26
62932;BMP280;49037;41.898;25.004;2023-07-20T04:47:56;96032.50;;;25.31
62932;BMP280;49037;41.898;25.004;2023-07-20T04:50:22;96032.03;;;25.38
62932;BMP280;49037;41.898;25.004;2023-07-20T04:54:16;96025.63;;;25.55
62932;BMP280;49037;41.898;25.004;2023-07-20T04:56:46;96036.69;;;25.86
62932;BMP280;49037;41.898;25.004;2023-07-20T04:59:12;96042.88;;;26.15
62932;BMP280;49037;41.898;25.004;2023-07-20T05:01:37;96033.53;;;26.26
62932;BMP280;49037;41.898;25.004;2023-07-20T05:04:03;96041.84;;;26.61
62932;BMP280;49037;41.898;25.004;2023-07-20T05:06:28;96025.22;;;26.84
62932;BMP280;49037;41.898;25.004;2023-07-20T05:08:57;96022.69;;;26.96
62932;BMP280;49037;41.898;25.004;2023-07-20T05:11:23;96033.91;;;27.08
62932;BMP280;49037;41.898;25.004;2023-07-20T05:16:21;96022.50;;;27.21
62932;BMP280;49037;41.898;25.004;2023-07-20T05:21:40;96005.97;;;27.54
62932;BMP280;49037;41.898;25.004;2023-07-20T05:28:24;96020.19;;;28.31
62932;BMP280;49037;41.898;25.004;2023-07-20T05:31:12;96010.44;;;28.20
62932;BMP280;49037;41.898;25.004;2023-07-20T06:00:50;96030.69;;;30.87
62932;BMP280;49037;41.898;25.004;2023-07-20T06:03:31;96032.75;;;30.82
62932;BMP280;49037;41.898;25.004;2023-07-20T06:06:07;96027.28;;;30.90
62932;BMP280;49037;41.898;25.004;2023-07-20T06:14:47;96032.88;;;31.26
62932;BMP280;49037;41.898;25.004;2023-07-20T06:35:15;95999.00;;;30.99
62932;BMP280;49037;41.898;25.004;2023-07-20T06:44:48;95992.84;;;31.38
62932;BMP280;49037;41.898;25.004;2023-07-20T06:47:16;96003.88;;;31.70
62932;BMP280;49037;41.898;25.004;2023-07-20T06:49:47;95989.41;;;31.56
62932;BMP280;49037;41.898;25.004;2023-07-20T06:52:23;95992.84;;;31.50
62932;BMP280;49037;41.898;25.004;2023-07-20T06:54:56;95994.19;;;31.73
62932;BMP280;49037;41.898;25.004;2023-07-20T07:00:43;95971.41;;;31.88
62932;BMP280;49037;41.898;25.004;2023-07-20T07:03:26;95976.88;;;32.12
62932;BMP280;49037;41.898;25.004;2023-07-20T07:06:17;95995.47;;;32.23
62932;BMP280;49037;41.898;25.004;2023-07-20T07:08:56;95983.78;;;32.09
62932;BMP280;49037;41.898;25.004;2023-07-20T07:11:27;95995.50;;;32.15
62932;BMP280;49037;41.898;25.004;2023-07-20T07:14:11;96001.81;;;31.74
62932;BMP280;49037;41.898;25.004;2023-07-20T07:16:54;96006.66;;;31.25
62932;BMP280;49037;41.898;25.004;2023-07-20T07:19:31;95999.75;;;31.47
62932;BMP280;49037;41.898;25.004;2023-07-20T07:22:36;96001.78;;;31.90
62932;BMP280;49037;41.898;25.004;2023-07-20T07:25:04;95994.16;;;32.06
62932;BMP280;49037;41.898;25.004;2023-07-20T07:27:30;96001.69;;;32.33
62932;BMP280;49037;41.898;25.004;2023-07-20T07:30:04;95996.78;;;32.50
62932;BMP280;49037;41.898;25.004;2023-07-20T07:32:30;95989.09;;;32.70
62932;BMP280;49037;41.898;25.004;2023-07-20T07:34:56;95991.09;;;32.79
62932;BMP280;49037;41.898;25.004;2023-07-20T07:37:33;95995.13;;;32.96
62932;BMP280;49037;41.898;25.004;2023-07-20T07:40:08;95995.19;;;32.88
62932;BMP280;49037;41.898;25.004;2023-07-20T07:45:53;95988.78;;;33.13
62932;BMP280;49037;41.898;25.004;2023-07-20T07:48:29;95996.41;;;33.17
62932;BMP280;49037;41.898;25.004;2023-07-20T07:50:59;95996.28;;;33.28
62932;BMP280;49037;41.898;25.004;2023-07-20T07:53:48;95998.28;;;33.40
62932;BMP280;49037;41.898;25.004;2023-07-20T07:56:20;95996.16;;;33.46
62932;BMP280;49037;41.898;25.004;2023-07-20T07:59:04;95992.06;;;33.39
62932;BMP280;49037;41.898;25.004;2023-07-20T08:01:56;95996.09;;;33.54
62932;BMP280;49037;41.898;25.004;2023-07-20T08:14:44;95986.31;;;33.59
62932;BMP280;49037;41.898;25.004;2023-07-20T08:21:15;95996.41;;;33.15
62932;BMP280;49037;41.898;25.004;2023-07-20T08:23:40;95998.38;;;33.28
62932;BMP280;49037;41.898;25.004;2023-07-20T08:29:12;95996.22;;;33.40
62932;BMP280;49037;41.898;25.004;2023-07-20T08:31:43;96003.19;;;33.33
62932;BMP280;49037;41.898;25.004;2023-07-20T08:40:33;95994.44;;;33.82
62932;BMP280;49037;41.898;25.004;2023-07-20T08:43:03;95988.72;;;33.21
62932;BMP280;49037;41.898;25.004;2023-07-20T08:49:11;96000.22;;;33.57
62932;BMP280;49037;41.898;25.004;2023-07-20T08:51:48;96005.38;;;33.96
62932;BMP280;49037;41.898;25.004;2023-07-20T08:54:14;95996.69;;;34.28
62932;BMP280;49037;41.898;25.004;2023-07-20T08:57:18;96008.38;;;34.38
62932;BMP280;49037;41.898;25.004;2023-07-20T09:03:24;96014.53;;;34.44
62932;BMP280;49037;41.898;25.004;2023-07-20T09:09:39;96009.00;;;33.83
62932;BMP280;49037;41.898;25.004;2023-07-20T09:12:26;96012.03;;;34.21
62932;BMP280;49037;41.898;25.004;2023-07-20T09:15:14;95995.66;;;34.55
62932;BMP280;49037;41.898;25.004;2023-07-20T09:17:50;96007.59;;;34.43
62932;BMP280;49037;41.898;25.004;2023-07-20T09:20:30;95994.47;;;34.40
62932;BMP280;49037;41.898;25.004;2023-07-20T09:23:20;95997.41;;;34.28
62932;BMP280;49037;41.898;25.004;2023-07-20T09:26:15;95995.34;;;34.76
62932;BMP280;49037;41.898;25.004;2023-07-20T09:28:52;95976.19;;;34.59
62932;BMP280;49037;41.898;25.004;2023-07-20T09:31:21;95975.59;;;34.98
62932;BMP280;49037;41.898;25.004;2023-07-20T09:33:48;95989.28;;;35.12
62932;BMP280;49037;41.898;25.004;2023-07-20T09:36:14;95988.44;;;35.21
62932;BMP280;49037;41.898;25.004;2023-07-20T09:38:41;95977.28;;;35.23
62932;BMP280;49037;41.898;25.004;2023-07-20T09:41:15;95970.22;;;35.30
62932;BMP280;49037;41.898;25.004;2023-07-20T09:43:49;95967.53;;;35.26
62932;BMP280;49037;41.898;25.004;2023-07-20T09:46:17;95980.81;;;35.60
62932;BMP280;49037;41.898;25.004;2023-07-20T09:49:11;95979.78;;;35.39
62932;BMP280;49037;41.898;25.004;2023-07-20T09:51:57;95979.59;;;35.51
62932;BMP280;49037;41.898;25.004;2023-07-20T09:54:45;95962.66;;;35.64
62932;BMP280;49037;41.898;25.004;2023-07-20T09:57:21;95953.50;;;35.72
62932;BMP280;49037;41.898;25.004;2023-07-20T09:59:54;95955.66;;;36.03
62932;BMP280;49037;41.898;25.004;2023-07-20T10:02:42;95954.63;;;36.19
62932;BMP280;49037;41.898;25.004;2023-07-20T10:05:36;95935.78;;;35.89
62932;BMP280;49037;41.898;25.004;2023-07-20T10:08:24;95941.19;;;35.61
62932;BMP280;49037;41.898;25.004;2023-07-20T10:10:52;95934.09;;;35.30
62932;BMP280;49037;41.898;25.004;2023-07-20T10:13:26;95929.25;;;34.89
62932;BMP280;49037;41.898;25.004;2023-07-20T10:22:01;95912.78;;;35.19
62932;BMP280;49037;41.898;25.004;2023-07-20T10:24:27;95909.25;;;35.22
62932;BMP280;49037;41.898;25.004;2023-07-20T10:26:56;95900.84;;;35.26
62932;BMP280;49037;41.898;25.004;2023-07-20T10:29:50;95923.91;;;35.57
62932;BMP280;49037;41.898;25.004;2023-07-20T10:32:21;95919.31;;;35.77
62932;BMP280;49037;41.898;25.004;2023-07-20T10:34:51;95912.25;;;35.84
62932;BMP280;49037;41.898;25.004;2023-07-20T10:37:49;95916.09;;;35.99
62932;BMP280;49037;41.898;25.004;2023-07-20T10:43:27;95894.81;;;36.20
62932;BMP280;49037;41.898;25.004;2023-07-20T10:46:04;95903.59;;;36.30
62932;BMP280;49037;41.898;25.004;2023-07-20T10:48:33;95896.97;;;36.47
62932;BMP280;49037;41.898;25.004;2023-07-20T10:54:07;95880.03;;;36.85
62932;BMP280;49037;41.898;25.004;2023-07-20T11:02:58;95877.66;;;36.95
62932;BMP280;49037;41.898;25.004;2023-07-20T11:18:30;95862.06;;;35.56
62932;BMP280;49037;41.898;25.004;2023-07-20T11:21:41;95851.47;;;35.64
62932;BMP280;49037;41.898;25.004;2023-07-20T11:24:37;95849.44;;;35.95
62932;BMP280;49037;41.898;25.004;2023-07-20T11:27:19;95838.00;;;35.77
62932;BMP280;49037;41.898;25.004;2023-07-20T11:29:55;95837.53;;;35.98
62932;BMP280;49037;41.898;25.004;2023-07-20T11:32:35;95827.06;;;36.01
62932;BMP280;49037;41.898;25.004;2023-07-20T11:38:51;95812.06;;;35.88
62932;BMP280;49037;41.898;25.004;2023-07-20T11:41:19;95816.59;;;36.01
62932;BMP280;49037;41.898;25.004;2023-07-20T11:43:57;95817.06;;;36.12
62932;BMP280;49037;41.898;25.004;2023-07-20T11:50:25;95804.50;;;35.51
62932;BMP280;49037;41.898;25.004;2023-07-20T11:59:03;95800.22;;;35.56
62932;BMP280;49037;41.898;25.004;2023-07-20T12:01:30;95808.72;;;35.48
62932;BMP280;49037;41.898;25.004;2023-07-20T12:04:04;95795.69;;;35.40
62932;BMP280;49037;41.898;25.004;2023-07-20T12:06:50;95803.91;;;35.46
62932;BMP280;49037;41.898;25.004;2023-07-20T12:09:23;95819.88;;;35.46
62932;BMP280;49037;41.898;25.004;2023-07-20T12:11:49;95829.59;;;35.47
62932;BMP280;49037;41.898;25.004;2023-07-20T12:14:15;95822.84;;;35.36
62932;BMP280;49037;41.898;25.004;2023-07-20T12:16:44;95843.03;;;35.34
62932;BMP280;49037;41.898;25.004;2023-07-20T12:19:17;95833.38;;;35.30
62932;BMP280;49037;41.898;25.004;2023-07-20T12:21:42;95818.13;;;35.29
62932;BMP280;49037;41.898;25.004;2023-07-20T12:24:10;95809.16;;;35.26
62932;BMP280;49037;41.898;25.004;2023-07-20T12:26:35;95786.72;;;35.38
62932;BMP280;49037;41.898;25.004;2023-07-20T12:29:03;95784.16;;;35.60
62932;BMP280;49037;41.898;25.004;2023-07-20T12:31:36;95775.69;;;35.66
62932;BMP280;49037;41.898;25.004;2023-07-20T12:34:02;95782.88;;;35.55
62932;BMP280;49037;41.898;25.004;2023-07-20T12:36:27;95787.56;;;35.29
62932;BMP280;49037;41.898;25.004;2023-07-20T12:39:00;95776.47;;;34.91
62932;BMP280;49037;41.898;25.004;2023-07-20T12:41:28;95774.28;;;34.99
62932;BMP280;49037;41.898;25.004;2023-07-20T12:43:55;95789.50;;;34.62
62932;BMP280;49037;41.898;25.004;2023-07-20T12:46:23;95792.03;;;34.34
62932;BMP280;49037;41.898;25.004;2023-07-20T12:48:49;95812.69;;;33.95
62932;BMP280;49037;41.898;25.004;2023-07-20T12:51:14;95792.84;;;33.77
62932;BMP280;49037;41.898;25.004;2023-07-20T12:53:40;95800.81;;;34.03
62932;BMP280;49037;41.898;25.004;2023-07-20T12:56:09;95817.72;;;34.33
62932;BMP280;49037;41.898;25.004;2023-07-20T12:58:36;95818.06;;;34.53
62932;BMP280;49037;41.898;25.004;2023-07-20T13:01:12;95809.38;;;34.76
62932;BMP280;49037;41.898;25.004;2023-07-20T13:03:40;95804.13;;;34.59
62932;BMP280;49037;41.898;25.004;2023-07-20T13:06:08;95796.22;;;34.31
62932;BMP280;49037;41.898;25.004;2023-07-20T13:08:37;95806.09;;;34.22
62932;BMP280;49037;41.898;25.004;2023-07-20T13:11:16;95796.00;;;34.01
62932;BMP280;49037;41.898;25.004;2023-07-20T13:13:43;95799.69;;;33.84
62932;BMP280;49037;41.898;25.004;2023-07-20T13:16:09;95790.16;;;33.73
62932;BMP280;49037;41.898;25.004;2023-07-20T13:18:43;95792.69;;;33.35
62932;BMP280;49037;41.898;25.004;2023-07-20T13:21:17;95789.16;;;33.41
62932;BMP280;49037;41.898;25.004;2023-07-20T13:23:53;95788.56;;;33.30
62932;BMP280;49037;41.898;25.004;2023-07-20T13:26:34;95794.78;;;33.31
62932;BMP280;49037;41.898;25.004;2023-07-20T13:29:02;95778.38;;;33.11
62932;BMP280;49037;41.898;25.004;2023-07-20T13:31:34;95785.50;;;32.94
62932;BMP280;49037;41.898;25.004;2023-07-20T13:34:00;95770.47;;;32.72
62932;BMP280;49037;41.898;25.004;2023-07-20T13:36:25;95772.56;;;32.71
62932;BMP280;49037;41.898;25.004;2023-07-20T13:38:51;95761.59;;;32.56
62932;BMP280;49037;41.898;25.004;2023-07-20T13:41:16;95771.41;;;32.45
62932;BMP280;49037;41.898;25.004;2023-07-20T13:43:42;95764.50;;;32.38
62932;BMP280;49037;41.898;25.004;2023-07-20T13:46:08;95759.13;;;32.22
62932;BMP280;49037;41.898;25.004;2023-07-20T13:48:33;95757.75;;;32.19
62932;BMP280;49037;41.898;25.004;2023-07-20T13:50:59;95772.84;;;32.34
62932;BMP280;49037;41.898;25.004;2023-07-20T13:53:24;95768.00;;;32.36
62932;BMP280;49037;41.898;25.004;2023-07-20T13:55:50;95760.44;;;32.29
62932;BMP280;49037;41.898;25.004;2023-07-20T13:58:18;95769.38;;;32.35
62932;BMP280;49037;41.898;25.004;2023-07-20T14:00:46;95757.75;;;32.15
62932;BMP280;49037;41.898;25.004;2023-07-20T14:03:12;95753.63;;;32.16
62932;BMP280;49037;41.898;25.004;2023-07-20T14:05:37;95741.97;;;32.04
62932;BMP280;49037;41.898;25.004;2023-07-20T14:08:03;95737.16;;;31.98
62932;BMP280;49037;41.898;25.004;2023-07-20T14:10:28;95746.06;;;32.15
62932;BMP280;49037;41.898;25.004;2023-07-20T14:12:54;95738.31;;;32.31
62932;BMP280;49037;41.898;25.004;2023-07-20T14:15:19;95727.94;;;32.33
62932;BMP280;49037;41.898;25.004;2023-07-20T14:17:45;95734.78;;;32.38
62932;BMP280;49037;41.898;25.004;2023-07-20T14:20:11;95730.88;;;32.08
62932;BMP280;49037;41.898;25.004;2023-07-20T14:22:44;95735.09;;;31.99
62932;BMP280;49037;41.898;25.004;2023-07-20T14:25:10;95730.97;;;31.90
62932;BMP280;49037;41.898;25.004;2023-07-20T14:27:35;95718.66;;;31.71
62932;BMP280;49037;41.898;25.004;2023-07-20T14:30:01;95718.69;;;31.62
62932;BMP280;49037;41.898;25.004;2023-07-20T14:32:26;95716.66;;;31.54
62932;BMP280;49037;41.898;25.004;2023-07-20T14:34:52;95726.44;;;31.26
62932;BMP280;49037;41.898;25.004;2023-07-20T14:37:20;95726.50;;;31.12
62932;BMP280;49037;41.898;25.004;2023-07-20T14:39:46;95723.06;;;30.98
62932;BMP280;49037;41.898;25.004;2023-07-20T14:42:11;95725.19;;;30.85
62932;BMP280;49037;41.898;25.004;2023-07-20T14:44:39;95730.69;;;30.73
62932;BMP280;49037;41.898;25.004;2023-07-20T14:47:08;95754.81;;;30.71
62932;BMP280;49037;41.898;25.004;2023-07-20T14:49:33;95759.66;;;30.65
62932;BMP280;49037;41.898;25.004;2023-07-20T14:51:58;95749.31;;;30.35
62932;BMP280;49037;41.898;25.004;2023-07-20T14:54:24;95765.16;;;30.31
62932;BMP280;49037;41.898;25.004;2023-07-20T14:56:51;95737.56;;;30.15
62932;BMP280;49037;41.898;25.004;2023-07-20T14:59:22;95738.97;;;30.28
62932;BMP280;49037;41.898;25.004;2023-07-20T15:01:47;95743.09;;;30.43
62932;BMP280;49037;41.898;25.004;2023-07-20T15:04:16;95755.50;;;30.60
62932;BMP280;49037;41.898;25.004;2023-07-20T15:06:41;95756.91;;;30.57
62932;BMP280;49037;41.898;25.004;2023-07-20T15:09:14;95736.91;;;30.36
62932;BMP280;49037;41.898;25.004;2023-07-20T15:11:40;95748.63;;;30.41
62932;BMP280;49037;41.898;25.004;2023-07-20T15:14:05;95761.06;;;30.48
62932;BMP280;49037;41.898;25.004;2023-07-20T15:16:31;95754.16;;;30.45
62932;BMP280;49037;41.898;25.004;2023-07-20T15:18:56;95764.47;;;30.35
62932;BMP280;49037;41.898;25.004;2023-07-20T15:21:24;95765.81;;;30.30
62932;BMP280;49037;41.898;25.004;2023-07-20T15:24:11;95743.09;;;30.27
62932;BMP280;49037;41.898;25.004;2023-07-20T15:26:38;95766.56;;;30.36
62932;BMP280;49037;41.898;25.004;2023-07-20T15:29:15;95763.78;;;30.38
62932;BMP280;49037;41.898;25.004;2023-07-20T15:31:43;95757.59;;;30.34
62932;BMP280;49037;41.898;25.004;2023-07-20T15:34:10;95770.00;;;30.44
62932;BMP280;49037;41.898;25.004;2023-07-20T15:36:38;95754.84;;;30.49
62932;BMP280;49037;41.898;25.004;2023-07-20T15:39:06;95758.28;;;30.52
62932;BMP280;49037;41.898;25.004;2023-07-20T15:41:31;95743.81;;;30.51
62932;BMP280;49037;41.898;25.004;2023-07-20T15:43:57;95750.72;;;30.60
62932;BMP280;49037;41.898;25.004;2023-07-20T15:48:52;95756.22;;;30.80
62932;BMP280;49037;41.898;25.004;2023-07-20T15:51:26;95747.25;;;30.85
62932;BMP280;49037;41.898;25.004;2023-07-20T15:53:52;95744.47;;;30.95
62932;BMP280;49037;41.898;25.004;2023-07-20T15:56:39;95747.25;;;30.89
62932;BMP280;49037;41.898;25.004;2023-07-20T15:59:05;95745.88;;;30.76
62932;BMP280;49037;41.898;25.004;2023-07-20T16:01:31;95750.00;;;30.66
62932;BMP280;49037;41.898;25.004;2023-07-20T16:03:58;95754.16;;;30.68
62932;BMP280;49037;41.898;25.004;2023-07-20T16:06:24;95743.13;;;30.53
62932;BMP280;49037;41.898;25.004;2023-07-20T16:09:09;95762.44;;;30.45
62932;BMP280;49037;41.898;25.004;2023-07-20T16:11:35;95755.53;;;30.40
62932;BMP280;49037;41.898;25.004;2023-07-20T16:14:01;95752.03;;;30.22
62932;BMP280;49037;41.898;25.004;2023-07-20T16:16:33;95761.69;;;30.15
62932;BMP280;49037;41.898;25.004;2023-07-20T16:19:08;95756.78;;;29.84
62932;BMP280;49037;41.898;25.004;2023-07-20T16:21:37;95761.50;;;29.62
62932;BMP280;49037;41.898;25.004;2023-07-20T16:24:02;95769.66;;;29.42
62932;BMP280;49037;41.898;25.004;2023-07-20T17:01:18;95825.63;;;28.82
62932;BMP280;49037;41.898;25.004;2023-07-20T17:07:44;95811.06;;;28.66
62932;BMP280;49037;41.898;25.004;2023-07-20T17:20:48;95830.53;;;28.23
62932;BMP280;49037;41.898;25.004;2023-07-20T17:26:58;95836.31;;;27.92
62932;BMP280;49037;41.898;25.004;2023-07-20T17:30:24;95829.91;;;27.73
62932;BMP280;49037;41.898;25.004;2023-07-20T17:37:17;95854.41;;;27.58
62932;BMP280;49037;41.898;25.004;2023-07-20T18:06:51;95916.00;;;27.08
62932;BMP280;49037;41.898;25.004;2023-07-20T18:09:50;95908.69;;;26.83
62932;BMP280;49037;41.898;25.004;2023-07-20T20:34:40;96118.50;;;25.26
62932;BMP280;49037;41.898;25.004;2023-07-20T20:38:12;96106.78;;;25.00
62932;BMP280;49037;41.898;25.004;2023-07-20T20:40:58;96116.94;;;24.97
62932;BMP280;49037;41.898;25.004;2023-07-20T20:43:24;96104.94;;;24.83
62932;BMP280;49037;41.898;25.004;2023-07-20T20:46:08;96124.78;;;24.84
62932;BMP280;49037;41.898;25.004;2023-07-20T20:49:34;96126.91;;;24.87
62932;BMP280;49037;41.898;25.004;2023-07-20T21:09:17;96131.00;;;25.09
62932;BMP280;49037;41.898;25.004;2023-07-20T21:16:20;96117.50;;;24.71
62932;BMP280;49037;41.898;25.004;2023-07-20T21:18:45;96122.63;;;24.80
62932;BMP280;49037;41.898;25.004;2023-07-20T21:21:14;96114.09;;;24.70
62932;BMP280;49037;41.898;25.004;2023-07-20T21:37:47;96108.66;;;24.70
62932;BMP280;49037;41.898;25.004;2023-07-20T21:40:44;96115.56;;;24.52
62932;BMP280;49037;41.898;25.004;2023-07-20T21:55:21;96124.59;;;24.57
62932;BMP280;49037;41.898;25.004;2023-07-20T21:57:49;96140.84;;;24.53
62932;BMP280;49037;41.898;25.004;2023-07-20T22:00:18;96137.53;;;24.35
62932;BMP280;49037;41.898;25.004;2023-07-20T22:15:15;96142.34;;;24.15
62932;BMP280;49037;41.898;25.004;2023-07-20T22:21:16;96129.06;;;23.87
62932;BMP280;49037;41.898;25.004;2023-07-20T22:27:19;96138.81;;;23.72
62932;BMP280;49037;41.898;25.004;2023-07-20T23:14:49;96152.09;;;23.82
62932;BMP280;49037;41.898;25.004;2023-07-20T23:17:34;96132.16;;;23.58
62932;BMP280;49037;41.898;25.004;2023-07-20T23:23:18;96133.47;;;23.38
62932;BMP280;49037;41.898;25.004;2023-07-20T23:25:57;96137.81;;;23.45
62932;BMP280;49037;41.898;25.004;2023-07-20T23:28:53;96137.38;;;23.52
62932;BMP280;49037;41.898;25.004;2023-07-20T23:34:18;96148.69;;;23.25
